Knottsville, Kentucky
Current Conditions -  °F | °C
As of 10:26 AM on Friday 31 Oct 2014 (Local Time) from KOWB Reporting Station
Light Rain Light Rain  
Wind Chill: 42°   Ceiling: 2100
Heat Index: 48°   Visibility: 8mi
Dew Point: 43°   Wind: 15mph
Humidity: 82%   Direction: 340°NNW
Pressure: 30.06"   Gusts: 24mph
Location:  37.7285°N, 86.9409°W
Report Text: KOWB 311526Z 34013G21KT 8SM -RA BKN021 OVC060 09/06 A3006 RMK AO2 RAB22 P0000
Loading
Personal Weather Stations






























Interactive Weather Map
Tropical Storm Tracking
New forecast layout! Learn more

10-Day Weather Forecast

Advertisements
Track Severe Weather on mobile